Time;durP1;ratioP1;P1;durP2;ratioP2;P2;SDS_P1;SDS_P2;PMS_P1;PMS_P2;Temp;Humidity;BMP_temperature;BMP_pressure;BME280_temperature;BME280_humidity;BME280_pressure;Samples;Min_cycle;Max_cycle;Signal;HPM_P1;HPM_P2
2021/09/05 00:00:26;;;;;;;0.85;0.40;;;18.40;50.50;;;;;;4992958;28;20762;-49
2021/09/05 00:02:57;;;;;;;1.50;0.50;;;18.40;50.50;;;;;;4993129;28;20219;-58
2021/09/05 00:05:28;;;;;;;0.40;0.40;;;18.50;50.50;;;;;;4992593;28;20205;-49
2021/09/05 00:07:59;;;;;;;0.50;0.50;;;18.50;50.50;;;;;;4993814;28;20248;-59
2021/09/05 00:10:32;;;;;;;0.55;0.50;;;18.50;50.50;;;;;;4993192;28;20233;-57
2021/09/05 00:13:02;;;;;;;0.55;0.50;;;18.60;50.50;;;;;;4992326;28;20232;-56
2021/09/05 00:15:33;;;;;;;1.23;0.50;;;18.60;50.50;;;;;;4992783;28;20688;-59
2021/09/05 00:18:04;;;;;;;0.40;0.40;;;18.60;50.50;;;;;;4993855;28;20563;-59
2021/09/05 00:20:35;;;;;;;0.50;0.50;;;18.60;50.50;;;;;;4992441;28;20304;-54
2021/09/05 00:23:06;;;;;;;0.40;0.40;;;18.70;50.50;;;;;;4988252;28;20220;-59
2021/09/05 00:25:38;;;;;;;0.50;0.50;;;18.70;50.40;;;;;;4990055;28;20217;-59
2021/09/05 00:28:09;;;;;;;0.40;0.40;;;18.80;50.50;;;;;;4993300;28;20208;-59
2021/09/05 00:30:40;;;;;;;1.15;0.50;;;18.80;50.50;;;;;;4974020;28;20228;-61
2021/09/05 00:33:10;;;;;;;0.77;0.52;;;18.80;50.40;;;;;;4973361;28;20594;-60
2021/09/05 00:35:41;;;;;;;1.23;0.68;;;18.80;50.50;;;;;;4973287;28;20206;-60
2021/09/05 00:38:12;;;;;;;0.50;0.50;;;18.90;50.50;;;;;;4972646;28;20202;-60
2021/09/05 00:40:44;;;;;;;0.50;0.50;;;18.90;50.50;;;;;;4973934;28;20225;-57
2021/09/05 00:43:15;;;;;;;0.50;0.50;;;19.00;50.50;;;;;;4973258;28;20202;-56
2021/09/05 00:45:46;;;;;;;0.50;0.40;;;19.00;50.40;;;;;;4974070;28;20206;-56
2021/09/05 00:48:16;;;;;;;0.60;0.60;;;19.00;50.50;;;;;;4973451;28;20216;-53
2021/09/05 00:50:47;;;;;;;0.68;0.40;;;19.00;50.50;;;;;;4973509;28;20232;-50
2021/09/05 00:53:18;;;;;;;0.60;0.43;;;19.10;50.50;;;;;;4977391;28;20225;-49
2021/09/05 00:55:50;;;;;;;0.77;0.50;;;19.10;50.30;;;;;;4993421;28;20400;-57
2021/09/05 00:58:21;;;;;;;0.50;0.50;;;19.10;50.30;;;;;;4993398;28;20216;-57
2021/09/05 01:00:52;;;;;;;0.32;0.32;;;19.20;50.30;;;;;;4993279;28;20221;-60
2021/09/05 01:03:22;;;;;;;0.40;0.40;;;19.20;50.30;;;;;;4993367;28;20217;-59
2021/09/05 01:05:53;;;;;;;0.38;0.38;;;19.30;50.30;;;;;;4993522;28;20213;-59
2021/09/05 01:08:24;;;;;;;0.75;0.40;;;19.30;50.30;;;;;;4993109;28;20688;-59
2021/09/05 01:10:56;;;;;;;0.40;0.40;;;19.30;50.20;;;;;;4992640;28;20225;-60
2021/09/05 01:13:27;;;;;;;0.50;0.50;;;19.40;50.20;;;;;;4992569;28;20260;-58
2021/09/05 01:15:58;;;;;;;1.05;0.50;;;19.40;50.20;;;;;;4992592;28;20227;-59
2021/09/05 01:18:29;;;;;;;0.43;0.40;;;19.40;50.20;;;;;;4993160;28;20211;-60
2021/09/05 01:20:59;;;;;;;0.55;0.40;;;19.50;50.20;;;;;;4992949;28;20237;-56
2021/09/05 01:23:30;;;;;;;1.45;0.30;;;19.50;50.10;;;;;;4992424;28;20205;-56
2021/09/05 01:26:03;;;;;;;0.50;0.50;;;19.60;50.10;;;;;;4992933;28;20212;-54
2021/09/05 01:28:35;;;;;;;0.40;0.40;;;19.60;50.20;;;;;;4993375;28;20231;-60
2021/09/05 01:31:06;;;;;;;0.30;0.30;;;19.60;50.20;;;;;;4992727;28;20229;-59
2021/09/05 01:33:37;;;;;;;1.48;0.40;;;19.60;50.20;;;;;;4992633;28;20232;-59
2021/09/05 01:36:07;;;;;;;0.77;0.50;;;19.60;50.20;;;;;;4992464;28;20301;-56
2021/09/05 01:38:38;;;;;;;0.50;0.50;;;19.70;50.20;;;;;;4992216;28;20205;-59
2021/09/05 01:41:09;;;;;;;0.55;0.40;;;19.70;50.30;;;;;;4992642;28;20224;-59
2021/09/05 01:43:41;;;;;;;0.38;0.35;;;19.80;50.30;;;;;;4992643;28;20209;-58
2021/09/05 01:46:12;;;;;;;0.93;0.40;;;19.80;50.40;;;;;;4992616;28;20215;-59
2021/09/05 01:48:43;;;;;;;0.40;0.40;;;19.80;50.20;;;;;;4992156;28;20213;-59
2021/09/05 01:51:14;;;;;;;0.73;0.52;;;19.90;50.20;;;;;;4992566;28;20210;-59
2021/09/05 01:53:44;;;;;;;0.40;0.40;;;19.90;50.20;;;;;;4992939;28;20225;-58
2021/09/05 01:56:15;;;;;;;0.40;0.40;;;19.90;50.20;;;;;;4992394;28;20209;-58
2021/09/05 01:58:47;;;;;;;1.23;0.32;;;19.90;50.20;;;;;;4991649;28;20592;-59
2021/09/05 02:01:18;;;;;;;0.57;0.40;;;20.00;50.30;;;;;;4992643;28;20685;-58
2021/09/05 02:03:49;;;;;;;0.30;0.30;;;20.00;50.20;;;;;;4992524;28;20202;-57
2021/09/05 02:06:20;;;;;;;0.40;0.40;;;20.00;50.10;;;;;;4992346;28;20658;-59
2021/09/05 02:08:50;;;;;;;0.40;0.40;;;20.10;50.10;;;;;;4991901;28;20219;-70
2021/09/05 02:11:21;;;;;;;1.48;0.60;;;20.10;50.20;;;;;;4992070;28;20582;-67
2021/09/05 02:13:53;;;;;;;0.63;0.50;;;20.10;49.40;;;;;;4992386;28;20229;-70
2021/09/05 02:16:24;;;;;;;0.57;0.57;;;20.20;48.80;;;;;;4992413;28;20209;-61
2021/09/05 02:18:55;;;;;;;4.07;0.43;;;20.20;48.30;;;;;;4992317;28;20670;-63
2021/09/05 02:21:26;;;;;;;0.80;0.40;;;20.30;47.70;;;;;;4991746;28;20577;-67
2021/09/05 02:23:56;;;;;;;3.78;0.45;;;20.30;47.40;;;;;;4991135;28;20223;-65
2021/09/05 02:26:27;;;;;;;1.13;0.45;;;20.40;47.30;;;;;;4990962;28;20680;-64
2021/09/05 02:29:00;;;;;;;1.05;0.40;;;20.40;46.90;;;;;;4991914;28;20209;-55
2021/09/05 02:31:30;;;;;;;0.38;0.30;;;20.40;46.40;;;;;;4991273;28;20251;-70
2021/09/05 02:34:01;;;;;;;0.40;0.40;;;20.50;46.20;;;;;;4991435;28;20582;-69
2021/09/05 02:36:32;;;;;;;0.57;0.32;;;20.50;46.30;;;;;;4991347;28;20205;-66
2021/09/05 02:39:02;;;;;;;0.75;0.30;;;20.50;46.30;;;;;;4990572;28;20225;-57
2021/09/05 02:41:33;;;;;;;0.30;0.30;;;20.50;46.10;;;;;;4991103;28;20208;-58
2021/09/05 02:44:06;;;;;;;2.80;0.30;;;20.60;46.10;;;;;;4991518;28;20212;-53
2021/09/05 02:46:37;;;;;;;3.50;0.47;;;20.60;46.00;;;;;;4988705;28;20569;-52
2021/09/05 02:49:07;;;;;;;0.60;0.30;;;20.60;46.40;;;;;;4991104;28;20215;-55
2021/09/05 02:51:39;;;;;;;1.75;0.40;;;20.70;46.60;;;;;;4991122;28;20209;-56
2021/09/05 02:54:10;;;;;;;0.40;0.22;;;20.70;46.80;;;;;;4990642;28;20321;-56
2021/09/05 02:56:40;;;;;;;0.90;0.40;;;20.70;46.90;;;;;;4991753;28;20644;-55
2021/09/05 02:59:13;;;;;;;1.55;0.35;;;20.70;47.10;;;;;;4990854;28;20604;-48
2021/09/05 03:01:43;;;;;;;0.73;0.50;;;20.80;47.10;;;;;;4991283;28;20623;-46
2021/09/05 03:04:13;;;;;;;0.30;0.30;;;20.80;47.30;;;;;;4990976;28;20245;-52
2021/09/05 03:06:44;;;;;;;1.17;0.40;;;20.80;47.40;;;;;;4990497;28;20244;-46
2021/09/05 03:09:14;;;;;;;0.30;0.30;;;20.90;47.60;;;;;;4991108;28;20304;-52
2021/09/05 03:11:45;;;;;;;1.30;0.32;;;20.90;47.70;;;;;;4993352;28;20248;-51
2021/09/05 03:14:17;;;;;;;0.30;0.30;;;21.00;47.80;;;;;;4994939;28;20308;-52
2021/09/05 03:16:47;;;;;;;2.05;0.40;;;21.00;47.90;;;;;;4994128;28;20244;-56
2021/09/05 03:19:18;;;;;;;0.75;0.30;;;21.00;47.90;;;;;;4994144;28;20257;-56
2021/09/05 03:21:48;;;;;;;0.50;0.40;;;21.10;48.10;;;;;;4993889;28;20669;-51
2021/09/05 03:24:18;;;;;;;2.22;0.30;;;21.10;48.00;;;;;;4994450;28;20251;-52
2021/09/05 03:26:55;;;;;;;0.57;0.50;;;21.10;47.90;;;;;;4994142;28;20245;-48
2021/09/05 03:29:27;;;;;;;0.65;0.40;;;21.10;47.90;;;;;;4993847;28;20257;-51
2021/09/05 03:31:57;;;;;;;0.60;0.30;;;21.10;47.90;;;;;;4994419;28;20472;-49
2021/09/05 03:34:28;;;;;;;0.30;0.30;;;21.20;48.00;;;;;;4993766;28;20582;-47
2021/09/05 03:36:58;;;;;;;0.20;0.20;;;21.20;48.20;;;;;;4993758;28;20316;-55
2021/09/05 03:39:29;;;;;;;0.32;0.30;;;21.20;48.30;;;;;;4993720;28;20265;-47
2021/09/05 03:41:59;;;;;;;0.55;0.28;;;21.30;48.30;;;;;;4993893;28;20265;-52
2021/09/05 03:44:31;;;;;;;0.30;0.30;;;21.30;48.30;;;;;;4993578;28;20248;-50
2021/09/05 03:47:02;;;;;;;1.10;0.30;;;21.30;48.10;;;;;;4994721;28;20678;-51
2021/09/05 03:49:32;;;;;;;2.40;0.30;;;21.30;48.30;;;;;;4993732;28;20264;-59
2021/09/05 03:52:03;;;;;;;0.30;0.30;;;21.30;48.30;;;;;;4994730;28;20232;-57
2021/09/05 03:54:33;;;;;;;1.35;0.40;;;21.40;48.50;;;;;;4993708;28;20344;-56
2021/09/05 03:57:04;;;;;;;0.35;0.30;;;21.40;48.50;;;;;;4994200;28;20788;-58
2021/09/05 03:59:36;;;;;;;0.30;0.30;;;21.40;48.50;;;;;;4994006;28;20257;-59
2021/09/05 04:02:07;;;;;;;0.98;0.30;;;21.50;48.50;;;;;;4992984;28;20240;-59
2021/09/05 04:04:37;;;;;;;0.25;0.20;;;21.50;48.40;;;;;;4986366;28;20241;-59
2021/09/05 04:07:11;;;;;;;0.77;0.30;;;21.60;48.40;;;;;;4975295;28;20246;-53
2021/09/05 04:12:27;;;;;;;0.57;0.20;;;21.60;48.50;;;;;;4974987;28;20249;-56
2021/09/05 04:14:59;;;;;;;0.30;0.30;;;21.60;48.60;;;;;;4974810;28;20302;-58
2021/09/05 04:17:30;;;;;;;1.30;0.40;;;21.70;48.70;;;;;;4974771;28;20332;-60
2021/09/05 04:20:00;;;;;;;0.35;0.35;;;21.60;48.60;;;;;;4974863;28;20268;-59
2021/09/05 04:22:32;;;;;;;0.30;0.30;;;21.70;48.60;;;;;;4974454;28;20248;-59
2021/09/05 04:25:02;;;;;;;0.30;0.30;;;21.70;48.50;;;;;;4992380;28;20553;-59
2021/09/05 04:27:33;;;;;;;0.17;0.17;;;21.70;48.50;;;;;;5006073;23;20280;-46
2021/09/05 04:30:05;;;;;;;0.35;0.30;;;21.70;48.40;;;;;;4993965;28;20261;-61
2021/09/05 04:32:36;;;;;;;0.30;0.22;;;21.70;48.50;;;;;;4984701;28;20283;-61
2021/09/05 04:35:06;;;;;;;0.30;0.30;;;21.80;48.50;;;;;;4993546;28;20236;-60
2021/09/05 04:37:37;;;;;;;0.22;0.22;;;21.70;48.40;;;;;;4993786;28;20223;-52
2021/09/05 04:40:08;;;;;;;0.35;0.20;;;21.80;48.30;;;;;;4993338;28;20253;-63
2021/09/05 04:42:39;;;;;;;1.85;0.35;;;21.80;48.40;;;;;;4993914;28;20241;-50
2021/09/05 04:45:12;;;;;;;0.93;0.30;;;21.80;48.40;;;;;;4993836;28;20205;-53
2021/09/05 04:47:42;;;;;;;0.30;0.30;;;21.80;48.50;;;;;;4993832;28;20249;-47
2021/09/05 04:50:13;;;;;;;0.30;0.20;;;21.80;48.40;;;;;;4993436;28;20253;-56
2021/09/05 04:52:43;;;;;;;0.15;0.15;;;21.80;48.30;;;;;;4993627;28;20643;-51
2021/09/05 04:55:14;;;;;;;1.13;0.30;;;21.90;48.30;;;;;;4993759;28;20213;-59
2021/09/05 04:57:44;;;;;;;0.30;0.30;;;21.90;48.30;;;;;;4993592;28;20209;-58
2021/09/05 05:00:18;;;;;;;0.30;0.30;;;21.90;48.20;;;;;;4993623;28;20265;-65
2021/09/05 05:02:48;;;;;;;0.50;0.30;;;21.80;48.20;;;;;;4993219;28;20268;-55
2021/09/05 05:05:18;;;;;;;0.47;0.30;;;21.90;48.20;;;;;;4992886;28;20244;-59
2021/09/05 05:07:49;;;;;;;0.28;0.28;;;21.80;48.20;;;;;;4992966;28;20240;-55
2021/09/05 05:10:19;;;;;;;0.20;0.20;;;21.90;48.40;;;;;;4992882;28;20244;-57
2021/09/05 05:12:50;;;;;;;0.30;0.30;;;21.90;48.40;;;;;;4992993;28;20279;-61
2021/09/05 05:15:22;;;;;;;0.75;0.30;;;21.90;48.40;;;;;;4993197;28;20333;-46
2021/09/05 05:17:53;;;;;;;0.40;0.22;;;21.90;48.40;;;;;;4993052;28;20217;-63
2021/09/05 05:20:23;;;;;;;0.30;0.20;;;21.80;48.40;;;;;;4993135;28;20283;-52
2021/09/05 05:22:53;;;;;;;0.30;0.28;;;21.90;48.40;;;;;;4992855;28;20205;-57
2021/09/05 05:25:26;;;;;;;0.20;0.20;;;21.80;48.40;;;;;;4993141;28;20311;-52
2021/09/05 05:27:56;;;;;;;0.63;0.38;;;21.80;48.30;;;;;;5005188;23;20320;-48
2021/09/05 05:30:28;;;;;;;0.60;0.30;;;21.90;48.40;;;;;;5006901;28;20651;-50
2021/09/05 05:32:59;;;;;;;0.65;0.30;;;21.80;48.40;;;;;;5011142;28;20244;-58
2021/09/05 05:35:29;;;;;;;0.38;0.30;;;21.80;48.30;;;;;;5012305;28;20205;-56
2021/09/05 05:38:00;;;;;;;0.77;0.20;;;21.80;48.40;;;;;;5012541;28;20244;-56
2021/09/05 05:40:32;;;;;;;0.77;0.30;;;21.80;48.30;;;;;;5012107;28;20333;-59
2021/09/05 05:43:03;;;;;;;0.55;0.30;;;21.80;48.30;;;;;;5012233;28;20212;-54
2021/09/05 05:45:35;;;;;;;0.30;0.22;;;21.80;48.30;;;;;;5012002;28;20295;-50
2021/09/05 05:48:06;;;;;;;0.43;0.30;;;21.70;48.20;;;;;;5012218;28;20292;-58
2021/09/05 05:50:36;;;;;;;0.38;0.10;;;21.80;48.40;;;;;;5011753;28;20315;-50
2021/09/05 05:53:07;;;;;;;0.17;0.17;;;21.70;48.40;;;;;;5011450;28;20244;-54
2021/09/05 05:55:37;;;;;;;1.48;0.43;;;21.70;48.50;;;;;;5011630;28;20693;-57
2021/09/05 05:58:08;;;;;;;0.40;0.28;;;21.70;48.60;;;;;;5011903;28;20681;-50
2021/09/05 06:00:41;;;;;;;1.35;0.25;;;21.70;48.60;;;;;;5011791;28;20713;-58
2021/09/05 06:03:12;;;;;;;1.30;0.30;;;21.70;48.50;;;;;;5011602;28;20316;-55
2021/09/05 06:05:43;;;;;;;0.35;0.20;;;21.70;48.60;;;;;;5011851;28;20263;-59
2021/09/05 06:08:14;;;;;;;0.28;0.25;;;21.70;48.50;;;;;;5011939;28;20638;-58
2021/09/05 06:10:44;;;;;;;0.30;0.30;;;21.70;48.50;;;;;;5011588;28;20224;-54
2021/09/05 06:13:14;;;;;;;0.85;0.30;;;21.60;48.50;;;;;;5011873;28;20629;-54
2021/09/05 06:15:47;;;;;;;0.45;0.30;;;21.60;48.50;;;;;;5011815;28;20704;-54
2021/09/05 06:18:17;;;;;;;1.30;0.40;;;21.60;48.50;;;;;;5011810;28;20707;-59
2021/09/05 06:20:48;;;;;;;0.30;0.20;;;21.60;48.50;;;;;;5011697;28;20271;-55
2021/09/05 06:23:18;;;;;;;0.15;0.15;;;21.60;48.60;;;;;;5011730;28;20247;-49
2021/09/05 06:25:49;;;;;;;0.40;0.30;;;21.60;48.60;;;;;;5011619;28;20251;-59
2021/09/05 06:28:19;;;;;;;0.20;0.20;;;21.50;48.60;;;;;;5011726;28;20243;-55
2021/09/05 06:30:51;;;;;;;0.10;0.10;;;21.50;48.60;;;;;;5011204;28;20275;-58
2021/09/05 06:33:22;;;;;;;0.47;0.22;;;21.50;48.70;;;;;;5011078;28;20240;-59
2021/09/05 06:35:52;;;;;;;0.25;0.25;;;21.50;48.70;;;;;;5010988;28;20240;-58
2021/09/05 06:38:22;;;;;;;0.30;0.20;;;21.50;48.80;;;;;;5010590;28;20716;-56
2021/09/05 06:40:53;;;;;;;0.40;0.30;;;21.40;48.80;;;;;;5011009;28;20270;-59
2021/09/05 06:43:23;;;;;;;0.30;0.20;;;21.40;48.90;;;;;;5011799;28;20244;-58
2021/09/05 06:45:56;;;;;;;0.28;0.20;;;21.40;48.90;;;;;;5015278;28;20255;-54
2021/09/05 06:48:26;;;;;;;0.13;0.13;;;21.40;49.00;;;;;;5015556;28;20240;-54
2021/09/05 06:50:56;;;;;;;0.35;0.20;;;21.40;49.00;;;;;;5015262;28;20220;-58
2021/09/05 06:53:27;;;;;;;0.25;0.25;;;21.40;49.00;;;;;;5015111;28;20244;-53
2021/09/05 06:55:57;;;;;;;0.80;0.40;;;21.30;48.90;;;;;;5015363;28;20291;-49
2021/09/05 06:58:28;;;;;;;0.40;0.30;;;21.30;48.90;;;;;;5015238;28;20240;-55
2021/09/05 07:01:00;;;;;;;0.65;0.22;;;21.30;48.90;;;;;;5015262;28;20271;-59
2021/09/05 07:03:30;;;;;;;1.02;0.43;;;21.20;49.00;;;;;;5015280;28;20295;-56
2021/09/05 07:06:01;;;;;;;0.30;0.30;;;21.20;49.00;;;;;;5015099;28;20236;-54
2021/09/05 07:08:31;;;;;;;1.92;0.60;;;21.20;48.90;;;;;;5015336;28;20619;-54
2021/09/05 07:11:02;;;;;;;0.98;0.47;;;21.20;49.00;;;;;;5014614;28;20267;-58
2021/09/05 07:13:32;;;;;;;0.70;0.50;;;21.20;49.00;;;;;;5014821;28;20252;-45
2021/09/05 07:16:04;;;;;;;0.63;0.50;;;21.10;49.00;;;;;;5014894;28;20240;-54
2021/09/05 07:18:35;;;;;;;1.05;0.50;;;21.10;49.10;;;;;;5014239;28;20306;-54
2021/09/05 07:21:05;;;;;;;1.40;0.70;;;21.10;49.10;;;;;;5014420;28;20367;-53
2021/09/05 07:23:36;;;;;;;1.98;0.70;;;21.10;49.10;;;;;;5014619;28;20267;-58
2021/09/05 07:26:08;;;;;;;1.10;0.70;;;21.10;49.20;;;;;;5014665;28;20246;-58
2021/09/05 07:28:38;;;;;;;1.98;0.68;;;21.10;49.20;;;;;;5015108;28;20239;-52
2021/09/05 07:31:10;;;;;;;1.67;0.70;;;21.10;49.20;;;;;;5014274;28;20232;-57
2021/09/05 07:33:41;;;;;;;1.95;0.98;;;21.00;49.30;;;;;;5014750;28;20282;-54
2021/09/05 07:36:11;;;;;;;0.50;0.50;;;21.00;49.30;;;;;;5014350;28;20244;-53
2021/09/05 07:38:42;;;;;;;1.30;0.70;;;21.00;49.30;;;;;;5014385;28;20240;-55
2021/09/05 07:41:13;;;;;;;1.83;0.70;;;21.00;49.40;;;;;;5014355;28;20288;-55
2021/09/05 07:43:44;;;;;;;1.30;0.70;;;21.00;49.40;;;;;;5014764;28;20664;-54
2021/09/05 07:46:17;;;;;;;0.90;0.70;;;20.90;49.30;;;;;;5014492;28;20247;-53
2021/09/05 07:48:47;;;;;;;1.35;0.70;;;20.90;49.40;;;;;;5014387;28;20466;-52
2021/09/05 07:51:23;;;;;;;4.53;0.70;;;20.90;49.40;;;;;;5014338;28;20296;-57
2021/09/05 07:53:54;;;;;;;1.88;0.60;;;20.90;49.40;;;;;;5013857;28;20250;-54
2021/09/05 07:56:24;;;;;;;0.65;0.60;;;20.80;49.40;;;;;;5013519;28;20245;-56
2021/09/05 07:58:55;;;;;;;1.80;0.60;;;20.80;49.40;;;;;;5014081;28;20470;-49
2021/09/05 08:01:27;;;;;;;0.82;0.60;;;20.80;49.40;;;;;;5014227;28;20251;-51
2021/09/05 08:03:57;;;;;;;1.25;0.60;;;20.70;49.40;;;;;;5014392;28;20249;-54
2021/09/05 08:06:28;;;;;;;1.38;0.60;;;20.80;49.50;;;;;;5013831;28;20232;-51
2021/09/05 08:08:58;;;;;;;1.70;0.60;;;20.70;49.50;;;;;;5013370;28;20458;-53
2021/09/05 08:11:29;;;;;;;0.68;0.50;;;20.70;49.50;;;;;;5013695;28;20243;-52
2021/09/05 08:13:59;;;;;;;1.75;0.68;;;20.70;49.50;;;;;;5014010;28;20297;-57
2021/09/05 08:16:33;;;;;;;0.88;0.50;;;20.70;49.50;;;;;;5013926;28;20232;-56
2021/09/05 08:19:03;;;;;;;1.33;0.80;;;20.70;49.60;;;;;;5010427;28;20243;-41
2021/09/05 08:21:33;;;;;;;1.25;0.73;;;20.60;49.60;;;;;;5012825;28;20244;-47
2021/09/05 08:24:05;;;;;;;1.30;0.70;;;20.60;49.50;;;;;;5013400;28;20645;-41
2021/09/05 08:26:36;;;;;;;1.35;0.70;;;20.60;49.60;;;;;;5012351;28;20250;-55
2021/09/05 08:29:08;;;;;;;2.53;0.60;;;20.50;49.50;;;;;;5012887;28;20351;-54
2021/09/05 08:31:40;;;;;;;1.38;0.70;;;20.50;49.60;;;;;;5012188;28;20739;-47
2021/09/05 08:34:11;;;;;;;1.30;0.60;;;20.50;49.60;;;;;;5012171;28;20308;-45
2021/09/05 08:36:41;;;;;;;0.93;0.50;;;20.50;49.60;;;;;;5012379;28;20280;-53
2021/09/05 08:39:11;;;;;;;0.80;0.60;;;20.50;49.60;;;;;;5012905;28;20287;-46
2021/09/05 08:41:42;;;;;;;0.85;0.60;;;20.50;49.60;;;;;;5012265;28;20204;-55
2021/09/05 08:44:12;;;;;;;1.40;0.70;;;20.40;49.60;;;;;;5012521;28;20262;-44
2021/09/05 08:46:45;;;;;;;1.27;0.75;;;20.40;49.70;;;;;;5012259;28;20251;-42
2021/09/05 08:49:15;;;;;;;2.50;0.65;;;20.40;50.20;;;;;;5012523;28;20555;-45
2021/09/05 08:51:45;;;;;;;1.38;0.77;;;20.40;49.60;;;;;;5012041;28;20283;-42
2021/09/05 08:54:16;;;;;;;1.58;0.63;;;20.40;49.70;;;;;;5011515;28;20260;-47
2021/09/05 08:56:46;;;;;;;1.98;0.55;;;20.30;49.60;;;;;;5012932;28;20240;-44
2021/09/05 08:59:17;;;;;;;0.98;0.55;;;20.30;49.90;;;;;;5011513;28;20275;-47
2021/09/05 09:01:56;;;;;;;0.85;0.55;;;20.30;49.60;;;;;;5012503;28;20204;-46
2021/09/05 09:04:27;;;;;;;1.63;0.63;;;20.30;49.70;;;;;;5011738;28;20236;-41
2021/09/05 09:06:57;;;;;;;1.80;0.93;;;20.20;49.70;;;;;;5010552;28;20288;-40
2021/09/05 09:09:27;;;;;;;0.90;0.50;;;20.20;49.70;;;;;;5010759;28;20225;-52
2021/09/05 09:11:58;;;;;;;0.77;0.60;;;20.20;49.70;;;;;;5012265;28;20244;-49
2021/09/05 09:14:41;;;;;;;0.98;0.60;;;20.20;49.70;;;;;;5011890;28;20266;-51
2021/09/05 09:17:14;;;;;;;1.50;0.60;;;20.10;49.70;;;;;;5011819;28;20207;-55
2021/09/05 09:19:47;;;;;;;1.67;0.73;;;20.10;49.70;;;;;;5011530;28;20232;-58
2021/09/05 09:22:19;;;;;;;0.90;0.63;;;20.10;49.80;;;;;;5011620;28;20212;-51
2021/09/05 09:24:50;;;;;;;1.45;0.60;;;20.10;49.80;;;;;;5011620;28;20576;-56
2021/09/05 09:27:20;;;;;;;1.42;0.52;;;20.10;49.80;;;;;;5010434;28;20225;-58
2021/09/05 09:29:55;;;;;;;0.80;0.50;;;20.00;49.70;;;;;;5010901;28;20270;-46
2021/09/05 09:32:28;;;;;;;1.65;0.70;;;20.00;49.80;;;;;;5011696;28;20625;-54
2021/09/05 09:34:58;;;;;;;2.05;0.77;;;20.00;49.80;;;;;;5011162;28;20239;-58
2021/09/05 09:37:29;;;;;;;0.75;0.73;;;20.00;49.80;;;;;;5011694;28;20627;-54
2021/09/05 09:40:02;;;;;;;1.20;0.75;;;19.90;49.70;;;;;;5011469;28;20319;-45
2021/09/05 09:42:36;;;;;;;1.50;0.50;;;19.90;49.70;;;;;;5011728;28;20240;-50
2021/09/05 09:45:13;;;;;;;0.50;0.45;;;19.90;49.80;;;;;;5011401;28;20306;-54
2021/09/05 09:47:48;;;;;;;0.70;0.47;;;19.90;49.90;;;;;;5012143;28;20307;-47
2021/09/05 09:50:19;;;;;;;0.65;0.50;;;19.90;49.90;;;;;;5011546;28;20259;-59
2021/09/05 09:52:49;;;;;;;0.98;0.60;;;19.80;49.90;;;;;;5011236;28;20271;-58
2021/09/05 09:55:20;;;;;;;1.65;0.80;;;19.80;49.90;;;;;;4991278;28;20316;-50
2021/09/05 09:57:50;;;;;;;1.13;0.43;;;19.80;49.90;;;;;;4992011;28;20296;-52
2021/09/05 10:00:21;;;;;;;0.60;0.40;;;19.80;49.90;;;;;;4992240;28;20261;-47
2021/09/05 10:02:53;;;;;;;0.75;0.60;;;19.70;49.90;;;;;;4991622;28;20674;-58
2021/09/05 10:05:24;;;;;;;0.50;0.50;;;19.70;50.00;;;;;;4992207;28;20711;-51
2021/09/05 10:07:54;;;;;;;0.68;0.40;;;19.70;50.00;;;;;;4990831;28;20241;-47
2021/09/05 10:10:25;;;;;;;1.13;0.60;;;19.70;50.10;;;;;;4991289;28;20256;-50
2021/09/05 10:12:56;;;;;;;1.13;0.60;;;19.70;50.10;;;;;;4992324;28;20288;-57
2021/09/05 10:15:26;;;;;;;1.67;0.50;;;19.70;50.10;;;;;;4992162;28;20747;-61
2021/09/05 10:17:58;;;;;;;1.55;0.55;;;19.60;50.00;;;;;;4992155;28;20263;-61
2021/09/05 10:20:29;;;;;;;0.80;0.50;;;19.60;50.00;;;;;;4992166;28;20328;-60
2021/09/05 10:22:59;;;;;;;0.60;0.40;;;19.60;50.00;;;;;;4993162;28;20284;-60
2021/09/05 10:25:30;;;;;;;1.00;0.45;;;19.60;50.00;;;;;;5011947;28;20634;-58
2021/09/05 10:28:00;;;;;;;0.80;0.50;;;19.60;50.00;;;;;;5012578;28;20295;-60
2021/09/05 10:30:36;;;;;;;1.85;0.63;;;19.50;50.00;;;;;;5011927;28;20279;-63
2021/09/05 10:33:08;;;;;;;0.40;0.40;;;19.50;50.00;;;;;;5011785;28;20326;-63
2021/09/05 10:35:40;;;;;;;0.63;0.50;;;19.50;50.10;;;;;;5011524;28;20257;-60
2021/09/05 10:38:25;;;;;;;0.65;0.63;;;19.50;50.10;;;;;;5011654;28;20252;-57
2021/09/05 10:40:57;;;;;;;0.75;0.47;;;19.50;50.20;;;;;;5011082;28;20760;-63
2021/09/05 10:43:47;;;;;;;0.80;0.52;;;19.40;50.10;;;;;;5011558;28;20248;-62
2021/09/05 10:46:18;;;;;;;0.82;0.55;;;19.40;50.20;;;;;;5011343;28;20681;-62
2021/09/05 10:48:50;;;;;;;1.50;0.50;;;19.40;50.10;;;;;;5011414;28;20240;-60
2021/09/05 10:51:23;;;;;;;0.63;0.50;;;19.40;50.70;;;;;;5011655;28;20216;-62
2021/09/05 10:53:54;;;;;;;0.70;0.60;;;19.40;50.20;;;;;;5011495;28;20236;-60
2021/09/05 10:56:25;;;;;;;1.83;0.60;;;19.40;50.20;;;;;;5011339;28;20325;-62
2021/09/05 10:58:59;;;;;;;0.57;0.50;;;19.30;50.20;;;;;;5010768;28;20229;-62
2021/09/05 11:01:31;;;;;;;0.50;0.30;;;19.30;50.20;;;;;;5010950;28;20743;-63
2021/09/05 11:04:47;;;;;;;0.80;0.40;;;19.30;50.20;;;;;;5011016;28;20216;-63
2021/09/05 11:07:35;;;;;;;0.82;0.50;;;19.30;50.20;;;;;;5011618;28;20677;-58
2021/09/05 11:10:05;;;;;;;0.68;0.43;;;19.20;50.20;;;;;;5011234;28;20320;-61
2021/09/05 11:12:44;;;;;;;1.35;0.40;;;19.20;50.20;;;;;;5011607;28;20244;-61
2021/09/05 11:15:24;;;;;;;0.63;0.52;;;19.20;50.30;;;;;;5011514;28;20587;-61
2021/09/05 11:17:56;;;;;;;1.20;0.50;;;19.20;50.30;;;;;;5011353;28;20887;-62
2021/09/05 11:20:26;;;;;;;0.50;0.40;;;19.20;50.30;;;;;;5010723;28;20256;-60
2021/09/05 11:22:59;;;;;;;0.60;0.50;;;19.20;50.30;;;;;;5010807;28;20252;-62
2021/09/05 11:25:31;;;;;;;1.77;0.52;;;19.10;50.30;;;;;;5011228;28;20209;-62
2021/09/05 11:28:08;;;;;;;0.95;0.57;;;19.10;50.40;;;;;;5011540;28;20259;-62
2021/09/05 11:30:38;;;;;;;1.35;0.50;;;19.10;50.30;;;;;;5010920;28;20301;-62
2021/09/05 11:33:09;;;;;;;1.10;0.60;;;19.10;50.30;;;;;;5014878;28;20299;-62
2021/09/05 11:35:41;;;;;;;0.40;0.40;;;19.10;50.40;;;;;;5014876;28;20628;-63
2021/09/05 11:38:13;;;;;;;0.70;0.40;;;19.10;50.30;;;;;;5014655;28;20240;-63
2021/09/05 11:40:45;;;;;;;0.98;0.50;;;19.00;50.30;;;;;;5014079;28;20264;-59
2021/09/05 11:43:15;;;;;;;1.10;0.75;;;19.00;50.30;;;;;;5014415;28;20296;-62
2021/09/05 11:45:46;;;;;;;0.68;0.40;;;19.00;50.40;;;;;;5014323;28;20436;-63
2021/09/05 11:48:16;;;;;;;1.33;0.50;;;19.00;50.40;;;;;;5014469;28;20300;-62
2021/09/05 11:50:47;;;;;;;0.55;0.50;;;19.00;50.40;;;;;;5014101;28;20319;-57
2021/09/05 11:53:23;;;;;;;1.75;0.60;;;19.00;50.40;;;;;;5014148;28;20308;-62
2021/09/05 11:55:56;;;;;;;0.55;0.38;;;18.90;51.00;;;;;;5014164;28;20312;-63
2021/09/05 11:58:27;;;;;;;0.45;0.40;;;18.90;50.40;;;;;;5013910;28;20288;-62
2021/09/05 12:00:58;;;;;;;0.70;0.47;;;18.90;50.40;;;;;;5014211;28;20287;-62
2021/09/05 12:03:29;;;;;;;0.88;0.50;;;18.90;50.50;;;;;;5014469;28;20236;-62
2021/09/05 12:06:00;;;;;;;0.57;0.30;;;18.90;50.50;;;;;;5014024;28;20673;-62
2021/09/05 12:08:32;;;;;;;1.17;0.70;;;18.80;50.50;;;;;;5013690;28;20236;-59
2021/09/05 12:11:06;;;;;;;0.90;0.50;;;18.80;50.50;;;;;;5013522;28;20716;-61
2021/09/05 12:13:56;;;;;;;0.90;0.50;;;18.80;50.50;;;;;;5014150;28;20668;-61
2021/09/05 12:16:27;;;;;;;0.82;0.57;;;18.80;50.50;;;;;;5013688;28;20246;-61
2021/09/05 12:19:07;;;;;;;0.40;0.40;;;18.80;50.50;;;;;;5013819;28;20720;-60
2021/09/05 12:21:37;;;;;;;0.50;0.50;;;18.80;50.50;;;;;;5013564;28;20240;-62
2021/09/05 12:24:16;;;;;;;0.47;0.47;;;18.70;50.50;;;;;;5013826;28;20244;-62
2021/09/05 12:26:46;;;;;;;1.27;0.50;;;18.70;50.50;;;;;;5013445;28;20288;-53
2021/09/05 12:29:24;;;;;;;0.68;0.50;;;18.70;50.50;;;;;;5013774;28;20713;-62
2021/09/05 12:31:54;;;;;;;1.73;0.65;;;18.70;50.50;;;;;;5013347;28;20482;-60
2021/09/05 12:34:41;;;;;;;0.50;0.50;;;18.60;50.50;;;;;;5013583;28;20240;-62
2021/09/05 12:37:19;;;;;;;1.52;0.73;;;18.60;50.50;;;;;;5013778;28;20708;-62
2021/09/05 12:39:51;;;;;;;0.60;0.50;;;18.60;50.60;;;;;;5013680;28;20252;-63
2021/09/05 12:42:22;;;;;;;0.63;0.57;;;18.60;50.60;;;;;;5013327;28;20677;-63
2021/09/05 12:44:53;;;;;;;0.82;0.57;;;18.60;50.60;;;;;;5013744;28;20312;-63
2021/09/05 12:47:27;;;;;;;0.93;0.40;;;18.60;50.70;;;;;;5013177;28;20624;-61
2021/09/05 12:49:59;;;;;;;0.68;0.55;;;18.60;50.70;;;;;;5013326;28;20224;-59
2021/09/05 12:52:29;;;;;;;0.45;0.40;;;18.60;50.70;;;;;;5013386;28;20212;-61
2021/09/05 12:55:03;;;;;;;0.68;0.30;;;18.50;50.70;;;;;;5012956;28;20247;-61
2021/09/05 12:57:33;;;;;;;0.77;0.68;;;18.50;50.60;;;;;;5012756;28;20307;-57
2021/09/05 13:00:03;;;;;;;0.80;0.50;;;18.50;50.90;;;;;;5012848;28;20256;-61
2021/09/05 13:02:34;;;;;;;1.20;0.80;;;18.50;50.60;;;;;;5012946;28;20232;-61
2021/09/05 13:05:04;;;;;;;0.73;0.50;;;18.50;50.70;;;;;;5012867;28;20290;-57
2021/09/05 13:07:35;;;;;;;1.08;0.43;;;18.50;50.70;;;;;;5012353;28;20251;-61
2021/09/05 13:10:07;;;;;;;0.80;0.60;;;18.40;50.60;;;;;;5012219;28;20251;-61
2021/09/05 13:12:38;;;;;;;1.10;0.50;;;18.40;50.70;;;;;;5012661;28;20235;-61